Time;durP1;ratioP1;P1;durP2;ratioP2;P2;SDS_P1;SDS_P2;PMS_P1;PMS_P2;Temp;Humidity;BMP_temperature;BMP_pressure;BME280_temperature;BME280_humidity;BME280_pressure;Samples;Min_cycle;Max_cycle;Signal;HPM_P1;HPM_P2
2023/12/18 00:01:40;;;;;;;20.98;8.80;;;8.40;93.70;;;;;;5089234;28;20406;-73
2023/12/18 00:04:07;;;;;;;20.87;8.90;;;8.40;93.80;;;;;;5101698;28;20404;-73
2023/12/18 00:06:33;;;;;;;24.00;9.35;;;8.40;93.80;;;;;;5097443;28;20768;-73
2023/12/18 00:08:58;;;;;;;23.95;9.40;;;8.40;93.80;;;;;;5101141;28;20407;-73
2023/12/18 00:11:24;;;;;;;23.83;8.67;;;8.40;94.00;;;;;;5099374;28;20430;-72
2023/12/18 00:13:49;;;;;;;23.10;9.50;;;8.40;94.00;;;;;;5096040;28;20404;-72
2023/12/18 00:16:15;;;;;;;23.27;9.20;;;8.40;94.00;;;;;;5094695;28;20451;-73
2023/12/18 00:18:41;;;;;;;20.92;8.63;;;8.40;94.20;;;;;;5101218;28;20444;-73
2023/12/18 00:21:06;;;;;;;27.13;9.10;;;8.40;94.30;;;;;;5089587;28;21110;-72
2023/12/18 00:23:32;;;;;;;22.00;8.73;;;8.40;94.30;;;;;;5099593;28;20397;-72
2023/12/18 00:25:57;;;;;;;20.80;9.00;;;8.40;94.30;;;;;;5097986;28;20513;-72
2023/12/18 00:28:23;;;;;;;21.13;8.93;;;8.40;94.30;;;;;;5101232;28;20404;-73
2023/12/18 00:30:48;;;;;;;25.67;10.38;;;8.40;94.30;;;;;;5097580;28;20482;-72
2023/12/18 00:33:14;;;;;;;22.97;9.70;;;8.40;94.30;;;;;;5099188;28;20401;-72
2023/12/18 00:35:40;;;;;;;22.90;9.18;;;8.40;94.30;;;;;;5097948;28;20463;-72
2023/12/18 00:38:05;;;;;;;22.00;9.67;;;8.40;94.40;;;;;;5094540;28;20462;-72
2023/12/18 00:40:31;;;;;;;20.50;9.07;;;8.40;94.40;;;;;;5094039;28;20455;-72
2023/12/18 00:42:57;;;;;;;24.97;9.47;;;8.40;94.40;;;;;;5098654;28;20499;-72
2023/12/18 00:45:23;;;;;;;21.70;8.98;;;8.40;94.60;;;;;;5097360;28;20799;-72
2023/12/18 00:47:48;;;;;;;24.17;9.20;;;8.40;94.50;;;;;;5098880;28;20393;-72
2023/12/18 00:50:14;;;;;;;21.33;9.77;;;8.40;94.50;;;;;;5098651;28;20807;-72
2023/12/18 00:52:40;;;;;;;23.98;9.70;;;8.40;94.60;;;;;;5099423;28;20435;-72
2023/12/18 00:55:06;;;;;;;29.47;10.60;;;8.40;94.70;;;;;;5096573;28;20493;-72
2023/12/18 00:57:32;;;;;;;25.85;9.80;;;8.40;94.70;;;;;;5096465;28;20478;-73
2023/12/18 00:59:59;;;;;;;20.63;9.30;;;8.40;94.80;;;;;;5079020;28;20414;-72
2023/12/18 01:02:24;;;;;;;23.73;9.45;;;8.50;94.90;;;;;;5096741;28;20496;-72
2023/12/18 01:04:50;;;;;;;20.17;8.57;;;8.40;94.90;;;;;;5095845;28;20489;-72
2023/12/18 01:07:15;;;;;;;26.30;9.30;;;8.40;95.00;;;;;;5098005;28;20487;-72
2023/12/18 01:09:41;;;;;;;21.13;9.02;;;8.40;95.20;;;;;;5078631;28;20414;-72
2023/12/18 01:12:07;;;;;;;22.60;8.30;;;8.40;95.20;;;;;;5078872;28;20440;-72
2023/12/18 01:14:33;;;;;;;24.92;9.07;;;8.40;95.10;;;;;;5081662;28;20419;-72
2023/12/18 01:16:58;;;;;;;22.20;8.60;;;8.50;95.00;;;;;;5084682;28;20455;-73
2023/12/18 01:19:24;;;;;;;22.13;8.40;;;8.50;95.00;;;;;;5076258;28;20412;-72
2023/12/18 01:21:50;;;;;;;22.10;9.07;;;8.50;95.10;;;;;;5101164;28;20390;-72
2023/12/18 01:24:16;;;;;;;19.83;8.43;;;8.50;95.10;;;;;;5098354;28;20847;-72
2023/12/18 01:26:42;;;;;;;21.38;9.23;;;8.50;95.20;;;;;;5101674;28;20772;-73
2023/12/18 01:29:07;;;;;;;22.65;8.70;;;8.50;95.20;;;;;;5104945;28;20405;-73
2023/12/18 01:31:33;;;;;;;22.87;7.83;;;8.40;95.30;;;;;;5092884;28;20429;-72
2023/12/18 01:33:59;;;;;;;21.42;7.40;;;8.50;95.30;;;;;;5093699;28;21001;-72
2023/12/18 01:36:25;;;;;;;19.95;7.82;;;8.50;95.30;;;;;;5105395;28;20766;-72
2023/12/18 01:38:51;;;;;;;19.88;8.48;;;8.50;95.40;;;;;;5098910;28;20531;-72
2023/12/18 01:41:17;;;;;;;20.73;8.23;;;8.50;95.40;;;;;;5098350;28;20910;-72
2023/12/18 01:43:43;;;;;;;24.35;8.55;;;8.50;95.40;;;;;;5103887;28;20404;-72
2023/12/18 01:46:09;;;;;;;17.57;8.43;;;8.50;95.40;;;;;;5104903;28;20400;-72
2023/12/18 01:48:35;;;;;;;18.80;7.90;;;8.50;95.60;;;;;;5093380;28;20397;-72
2023/12/18 01:51:02;;;;;;;22.27;8.02;;;8.50;95.50;;;;;;5104235;28;20480;-72
2023/12/18 01:53:42;;;;;;;20.60;8.25;;;8.50;95.70;;;;;;5103671;28;20400;-72
2023/12/18 01:56:09;;;;;;;19.48;7.57;;;8.50;95.70;;;;;;5106548;28;20400;-73
2023/12/18 01:58:36;;;;;;;20.35;8.30;;;8.50;95.70;;;;;;5093914;28;20410;-72
2023/12/18 02:01:03;;;;;;;23.70;8.02;;;8.50;95.80;;;;;;5103422;28;20409;-72
2023/12/18 02:03:29;;;;;;;19.75;7.97;;;8.50;95.90;;;;;;5092390;28;20414;-72
2023/12/18 02:05:58;;;;;;;21.65;7.97;;;8.50;96.00;;;;;;5103285;28;20434;-72
2023/12/18 02:08:25;;;;;;;21.05;7.90;;;8.50;96.00;;;;;;5099338;28;20401;-72
2023/12/18 02:10:51;;;;;;;22.40;8.25;;;8.50;96.10;;;;;;5103397;28;20910;-72
2023/12/18 02:13:16;;;;;;;20.23;8.20;;;8.50;96.10;;;;;;5100160;28;20398;-72
2023/12/18 02:15:42;;;;;;;20.58;7.50;;;8.50;96.00;;;;;;5103163;28;20530;-72
2023/12/18 02:18:08;;;;;;;21.43;7.97;;;8.50;96.10;;;;;;5098344;28;20796;-73
2023/12/18 02:20:33;;;;;;;18.55;7.50;;;8.50;96.20;;;;;;5085131;28;20400;-72
2023/12/18 02:22:59;;;;;;;17.00;7.53;;;8.50;96.20;;;;;;5091426;28;20409;-73
2023/12/18 02:25:25;;;;;;;22.45;7.63;;;8.50;96.10;;;;;;5104874;28;20914;-72
2023/12/18 02:27:50;;;;;;;23.33;7.72;;;8.50;96.20;;;;;;5085183;28;20489;-72
2023/12/18 02:30:19;;;;;;;20.00;7.17;;;8.50;96.30;;;;;;5103902;28;20396;-72
2023/12/18 02:32:45;;;;;;;17.38;7.30;;;8.50;96.30;;;;;;5101606;28;20426;-72
2023/12/18 02:35:12;;;;;;;19.73;7.07;;;8.50;96.30;;;;;;5104935;28;20487;-72
2023/12/18 02:37:38;;;;;;;20.40;7.50;;;8.50;96.30;;;;;;5101260;28;20394;-72
2023/12/18 02:40:04;;;;;;;18.00;6.80;;;8.50;96.40;;;;;;5094910;28;20809;-72
2023/12/18 02:42:30;;;;;;;19.35;7.70;;;8.50;96.40;;;;;;5083623;28;20489;-72
2023/12/18 02:44:56;;;;;;;20.93;7.30;;;8.50;96.40;;;;;;5105359;28;20483;-72
2023/12/18 02:47:22;;;;;;;17.40;6.93;;;8.50;96.40;;;;;;5100408;28;20417;-73
2023/12/18 02:49:48;;;;;;;21.25;7.68;;;8.50;96.40;;;;;;5085708;28;20403;-72
2023/12/18 02:52:13;;;;;;;19.70;7.30;;;8.50;96.50;;;;;;5100578;28;20552;-72
2023/12/18 02:54:39;;;;;;;22.30;7.03;;;8.50;96.50;;;;;;5085778;28;20424;-73
2023/12/18 02:57:05;;;;;;;18.73;7.17;;;8.50;96.50;;;;;;5100345;28;20398;-73
2023/12/18 02:59:31;;;;;;;21.63;6.83;;;8.50;96.50;;;;;;5095494;28;20404;-72
2023/12/18 03:01:56;;;;;;;16.77;6.68;;;8.50;96.50;;;;;;5100693;28;20413;-73
2023/12/18 03:04:22;;;;;;;19.05;6.93;;;8.50;96.50;;;;;;5103944;28;20481;-72
2023/12/18 03:06:48;;;;;;;19.70;7.28;;;8.50;96.50;;;;;;5099105;28;20409;-73
2023/12/18 03:09:14;;;;;;;19.98;6.28;;;8.50;96.60;;;;;;5103780;28;20898;-73
2023/12/18 03:11:43;;;;;;;17.92;6.07;;;8.50;96.60;;;;;;5099063;28;20441;-72
2023/12/18 03:14:10;;;;;;;21.67;6.20;;;8.50;96.50;;;;;;5102837;27;20921;-73
2023/12/18 03:16:40;;;;;;;18.17;5.75;;;8.50;96.60;;;;;;5080780;28;20437;-72
2023/12/18 03:19:06;;;;;;;18.45;6.75;;;8.50;96.60;;;;;;5095558;28;20412;-72
2023/12/18 03:21:32;;;;;;;18.33;6.50;;;8.50;96.50;;;;;;5095382;28;20398;-73
2023/12/18 03:23:58;;;;;;;17.25;6.13;;;8.50;96.60;;;;;;5088361;28;20441;-73
2023/12/18 03:26:23;;;;;;;18.50;7.05;;;8.50;96.60;;;;;;5104669;28;20525;-72
2023/12/18 03:28:50;;;;;;;20.92;6.40;;;8.50;96.70;;;;;;5106348;28;20423;-73
2023/12/18 03:31:16;;;;;;;17.60;6.20;;;8.50;96.60;;;;;;5104753;28;20420;-73
2023/12/18 03:33:41;;;;;;;16.70;6.68;;;8.50;96.70;;;;;;5107526;28;20824;-72
2023/12/18 03:36:07;;;;;;;21.00;6.00;;;8.60;96.70;;;;;;5104223;28;20423;-72
2023/12/18 03:38:33;;;;;;;16.33;6.28;;;8.50;96.60;;;;;;5088524;28;20432;-72
2023/12/18 03:40:59;;;;;;;14.88;6.07;;;8.50;96.70;;;;;;5104027;28;20427;-72
2023/12/18 03:43:25;;;;;;;18.27;6.20;;;8.60;96.60;;;;;;5105785;28;20431;-72
2023/12/18 03:45:51;;;;;;;17.52;5.82;;;8.60;96.70;;;;;;5103900;28;20489;-72
2023/12/18 03:48:18;;;;;;;25.33;6.82;;;8.60;96.60;;;;;;5106938;28;20412;-72
2023/12/18 03:50:44;;;;;;;16.58;5.38;;;8.50;96.70;;;;;;5103095;28;20415;-72
2023/12/18 03:53:10;;;;;;;18.45;6.03;;;8.60;96.70;;;;;;5104921;28;20516;-72
2023/12/18 03:55:36;;;;;;;15.45;5.28;;;8.60;96.80;;;;;;5091587;28;20405;-73
2023/12/18 03:58:02;;;;;;;17.83;5.70;;;8.60;96.80;;;;;;5105419;28;20440;-73
2023/12/18 04:00:28;;;;;;;19.35;5.65;;;8.60;96.70;;;;;;5103657;28;20854;-72
2023/12/18 04:02:54;;;;;;;16.87;5.23;;;8.60;96.70;;;;;;5088879;28;20418;-73
2023/12/18 04:05:20;;;;;;;15.32;5.50;;;8.60;96.70;;;;;;5101655;28;20402;-73
2023/12/18 04:07:45;;;;;;;18.42;5.35;;;8.60;96.70;;;;;;5095828;28;20950;-73
2023/12/18 04:10:12;;;;;;;17.83;5.45;;;8.60;96.70;;;;;;5088675;28;20425;-72
2023/12/18 04:12:38;;;;;;;16.73;6.05;;;8.60;96.80;;;;;;5104474;28;20435;-73
2023/12/18 04:15:06;;;;;;;19.97;5.93;;;8.60;96.70;;;;;;5101483;28;20398;-73
2023/12/18 04:17:32;;;;;;;18.48;5.32;;;8.60;96.70;;;;;;5104283;28;20574;-72
2023/12/18 04:19:58;;;;;;;19.40;5.30;;;8.60;96.70;;;;;;5103281;28;20443;-72
2023/12/18 04:22:23;;;;;;;16.40;5.20;;;8.60;96.80;;;;;;5094791;28;20840;-72
2023/12/18 04:24:49;;;;;;;19.48;5.63;;;8.60;96.80;;;;;;5079236;28;20410;-72
2023/12/18 04:27:15;;;;;;;18.33;5.60;;;8.60;96.80;;;;;;5095227;28;20485;-73
2023/12/18 04:29:40;;;;;;;20.05;5.68;;;8.60;96.80;;;;;;5099176;28;20405;-72
2023/12/18 04:32:06;;;;;;;17.88;5.15;;;8.60;96.90;;;;;;5095183;28;20453;-73
2023/12/18 04:34:32;;;;;;;16.00;5.53;;;8.60;96.90;;;;;;5097327;28;20481;-72
2023/12/18 04:36:57;;;;;;;16.25;4.95;;;8.60;96.90;;;;;;5104781;28;20508;-73
2023/12/18 04:39:23;;;;;;;19.60;5.50;;;8.60;97.00;;;;;;5097344;28;20934;-73
2023/12/18 04:41:49;;;;;;;15.17;5.13;;;8.60;97.00;;;;;;5102564;28;20495;-73
2023/12/18 04:44:14;;;;;;;14.68;5.18;;;8.70;97.00;;;;;;5097078;28;20411;-73
2023/12/18 04:46:40;;;;;;;16.10;4.87;;;8.70;96.90;;;;;;5102154;28;20400;-73
2023/12/18 04:49:06;;;;;;;16.98;4.93;;;8.70;96.90;;;;;;5097975;28;20451;-73
2023/12/18 04:51:32;;;;;;;20.25;5.45;;;8.70;97.00;;;;;;5102221;28;20424;-73
2023/12/18 04:53:58;;;;;;;20.00;5.80;;;8.70;97.00;;;;;;5101383;28;20436;-73
2023/12/18 04:56:24;;;;;;;18.67;6.10;;;8.70;96.90;;;;;;5090414;28;20433;-73
2023/12/18 04:58:50;;;;;;;18.90;6.80;;;8.70;96.70;;;;;;5098585;28;20425;-73
2023/12/18 05:01:15;;;;;;;21.90;8.32;;;8.70;96.60;;;;;;5107120;28;20462;-73
2023/12/18 05:03:41;;;;;;;21.38;8.77;;;8.70;96.60;;;;;;5091836;28;20406;-73
2023/12/18 05:06:19;;;;;;;18.95;8.98;;;8.60;96.50;;;;;;5105874;28;20412;-73
2023/12/18 05:08:45;;;;;;;21.83;9.52;;;8.60;96.50;;;;;;5100355;28;20417;-73
2023/12/18 05:11:11;;;;;;;22.13;9.45;;;8.60;96.60;;;;;;5105183;28;20408;-73
2023/12/18 05:13:36;;;;;;;20.60;9.10;;;8.50;96.70;;;;;;5082179;28;20860;-73
2023/12/18 05:16:02;;;;;;;22.35;9.32;;;8.50;96.80;;;;;;5105709;28;20479;-73
2023/12/18 05:18:28;;;;;;;20.77;9.02;;;8.50;96.90;;;;;;5096756;28;20934;-73
2023/12/18 05:20:57;;;;;;;22.73;9.10;;;8.50;97.10;;;;;;5097644;28;20400;-73
2023/12/18 05:23:23;;;;;;;23.03;8.93;;;8.50;97.10;;;;;;5092606;28;21083;-73
2023/12/18 05:25:49;;;;;;;22.03;8.83;;;8.50;97.20;;;;;;5108273;28;20968;-73
2023/12/18 05:28:14;;;;;;;21.45;8.10;;;8.50;97.30;;;;;;5102001;28;20589;-73
2023/12/18 05:30:40;;;;;;;21.00;7.95;;;8.50;97.50;;;;;;5105907;28;20936;-73
2023/12/18 05:33:06;;;;;;;16.57;7.63;;;8.50;97.60;;;;;;5101727;28;20565;-73
2023/12/18 05:35:31;;;;;;;23.17;7.72;;;8.50;97.70;;;;;;5105177;28;20936;-73
2023/12/18 05:37:57;;;;;;;20.33;7.93;;;8.60;97.70;;;;;;5101587;28;20411;-73
2023/12/18 05:40:23;;;;;;;17.92;7.38;;;8.60;97.70;;;;;;5078454;28;20467;-73
2023/12/18 05:42:49;;;;;;;23.77;7.80;;;8.70;97.70;;;;;;5101123;28;20400;-73
2023/12/18 05:45:15;;;;;;;21.85;8.25;;;8.70;97.60;;;;;;5105260;28;20428;-73
2023/12/18 05:47:40;;;;;;;18.80;8.20;;;8.70;97.50;;;;;;5098812;28;20439;-73
2023/12/18 05:50:06;;;;;;;23.47;7.67;;;8.70;97.50;;;;;;5104641;28;20411;-73
2023/12/18 05:52:32;;;;;;;16.90;7.78;;;8.70;97.40;;;;;;5091806;28;20429;-73
2023/12/18 05:54:57;;;;;;;18.60;7.07;;;8.70;97.40;;;;;;5104028;28;20401;-72
2023/12/18 05:57:23;;;;;;;23.67;8.17;;;8.70;97.30;;;;;;5099385;28;20425;-73
2023/12/18 05:59:49;;;;;;;21.67;7.40;;;8.70;97.30;;;;;;5089807;28;20455;-73
2023/12/18 06:02:14;;;;;;;18.63;7.17;;;8.70;97.40;;;;;;5090981;28;20403;-73
2023/12/18 06:04:43;;;;;;;20.43;7.80;;;8.70;97.40;;;;;;5093803;28;20465;-73
2023/12/18 06:07:12;;;;;;;20.02;7.22;;;8.70;97.40;;;;;;5100673;28;20768;-73
2023/12/18 06:09:38;;;;;;;18.45;7.20;;;8.70;97.40;;;;;;5103072;28;20863;-73
2023/12/18 06:12:04;;;;;;;21.10;7.07;;;8.80;97.40;;;;;;5101898;28;20424;-73
2023/12/18 06:14:29;;;;;;;19.02;7.15;;;8.70;97.40;;;;;;5094099;28;20406;-73
2023/12/18 06:16:55;;;;;;;26.63;6.77;;;8.80;97.50;;;;;;5101049;28;20997;-73
2023/12/18 06:19:20;;;;;;;21.25;7.53;;;8.80;97.40;;;;;;5102117;28;20412;-73
2023/12/18 06:21:46;;;;;;;24.17;7.63;;;8.80;97.50;;;;;;5095265;28;20424;-73
2023/12/18 06:24:11;;;;;;;15.35;7.10;;;8.80;97.50;;;;;;5098595;28;20447;-72
2023/12/18 06:26:37;;;;;;;19.43;7.03;;;8.80;97.60;;;;;;5085043;28;20408;-73
2023/12/18 06:29:03;;;;;;;20.63;6.93;;;8.80;97.60;;;;;;5105410;28;20466;-73
2023/12/18 06:31:28;;;;;;;17.55;6.47;;;8.80;97.50;;;;;;5101835;28;20438;-73
2023/12/18 06:33:54;;;;;;;18.77;7.50;;;8.80;97.50;;;;;;5106591;28;20758;-73
2023/12/18 06:36:20;;;;;;;21.63;7.55;;;8.80;97.40;;;;;;5100567;28;20406;-73
2023/12/18 06:38:46;;;;;;;19.92;7.45;;;8.80;97.40;;;;;;5104108;28;20444;-73
2023/12/18 06:41:12;;;;;;;22.80;7.80;;;8.80;97.40;;;;;;5098637;28;20449;-73
2023/12/18 06:43:38;;;;;;;20.30;7.60;;;8.80;97.40;;;;;;5103747;28;20494;-73
2023/12/18 06:46:04;;;;;;;22.30;8.43;;;8.80;97.40;;;;;;5082121;28;20406;-73
2023/12/18 06:48:30;;;;;;;22.17;8.02;;;8.80;97.40;;;;;;5087190;28;20430;-70
2023/12/18 06:50:56;;;;;;;22.63;9.07;;;8.80;97.30;;;;;;5091200;28;20916;-71
2023/12/18 06:53:21;;;;;;;20.03;8.37;;;8.80;97.40;;;;;;5095759;28;20440;-70
2023/12/18 06:55:47;;;;;;;23.27;9.55;;;8.80;97.30;;;;;;5087271;28;21346;-71
2023/12/18 06:58:13;;;;;;;24.42;10.48;;;8.80;97.30;;;;;;5084042;28;20859;-71
2023/12/18 07:00:38;;;;;;;25.27;9.90;;;8.80;97.40;;;;;;5101163;28;20497;-72
2023/12/18 07:03:04;;;;;;;24.38;9.73;;;8.80;97.40;;;;;;5088748;28;20509;-72
2023/12/18 07:05:30;;;;;;;19.57;9.13;;;8.80;97.40;;;;;;5093781;28;20703;-72
2023/12/18 07:07:56;;;;;;;23.38;9.85;;;8.70;97.50;;;;;;5098823;28;20503;-72
2023/12/18 07:10:22;;;;;;;20.27;9.88;;;8.70;97.50;;;;;;5095822;28;20406;-72
2023/12/18 07:12:48;;;;;;;23.15;10.60;;;8.70;97.50;;;;;;5098133;28;20493;-72
2023/12/18 07:15:14;;;;;;;24.63;10.60;;;8.70;97.60;;;;;;5076588;28;20410;-72
2023/12/18 07:17:40;;;;;;;28.95;10.70;;;8.70;97.60;;;;;;5097842;28;20466;-72
2023/12/18 07:20:08;;;;;;;27.23;10.47;;;8.70;97.70;;;;;;5093216;28;20406;-72
2023/12/18 07:22:34;;;;;;;25.60;10.30;;;8.70;97.70;;;;;;5070507;28;20448;-72
2023/12/18 07:24:59;;;;;;;25.70;10.32;;;8.70;97.70;;;;;;5100686;28;20412;-72
2023/12/18 07:27:25;;;;;;;26.17;10.55;;;8.70;97.70;;;;;;5095906;28;20406;-72
2023/12/18 07:29:51;;;;;;;23.10;10.50;;;8.80;97.80;;;;;;5090642;28;20419;-72
2023/12/18 07:32:16;;;;;;;22.35;10.30;;;8.70;97.70;;;;;;5087275;28;20438;-72
2023/12/18 07:34:42;;;;;;;23.87;11.40;;;8.70;97.80;;;;;;5101431;28;20438;-72
2023/12/18 07:37:08;;;;;;;27.25;11.10;;;8.70;97.80;;;;;;5104172;28;20400;-72
2023/12/18 07:39:34;;;;;;;24.15;11.40;;;8.70;97.70;;;;;;5095328;28;20461;-72
2023/12/18 07:42:00;;;;;;;25.35;11.00;;;8.80;97.80;;;;;;5098420;28;20872;-72
2023/12/18 07:44:25;;;;;;;24.55;11.05;;;8.80;97.70;;;;;;5094991;28;20428;-73
2023/12/18 07:46:52;;;;;;;28.33;12.40;;;8.70;97.70;;;;;;5097726;28;20752;-72
2023/12/18 07:49:17;;;;;;;23.43;11.93;;;8.70;97.80;;;;;;5091815;28;20431;-72
2023/12/18 07:51:43;;;;;;;29.27;11.47;;;8.70;97.70;;;;;;5098937;28;20424;-72
2023/12/18 07:54:09;;;;;;;25.45;11.45;;;8.70;97.80;;;;;;5085508;28;20435;-72
2023/12/18 07:56:34;;;;;;;26.97;12.30;;;8.70;97.90;;;;;;5070243;28;20498;-73
2023/12/18 07:59:00;;;;;;;26.03;11.47;;;8.70;97.90;;;;;;5087508;28;20422;-72
2023/12/18 08:01:26;;;;;;;27.27;11.93;;;8.70;98.00;;;;;;5101369;28;20428;-72
2023/12/18 08:03:52;;;;;;;26.87;11.70;;;8.70;98.10;;;;;;5088891;28;21200;-72
2023/12/18 08:06:17;;;;;;;27.80;12.10;;;8.70;98.20;;;;;;5101205;28;21138;-72
2023/12/18 08:08:43;;;;;;;24.48;11.50;;;8.70;98.10;;;;;;5100376;28;20433;-72
2023/12/18 08:11:09;;;;;;;25.03;11.43;;;8.70;98.10;;;;;;5095887;28;20413;-72
2023/12/18 08:13:38;;;;;;;27.83;11.70;;;8.70;98.10;;;;;;5093845;28;20406;-72
2023/12/18 08:16:08;;;;;;;25.27;11.80;;;8.70;98.10;;;;;;5091057;28;20508;-72
2023/12/18 08:18:34;;;;;;;27.60;11.77;;;8.70;98.20;;;;;;5089109;28;20406;-72
2023/12/18 08:20:59;;;;;;;25.20;11.15;;;8.80;98.20;;;;;;5084520;28;20427;-72
2023/12/18 08:23:26;;;;;;;24.40;11.27;;;8.80;98.10;;;;;;5089764;28;20876;-72
2023/12/18 08:25:52;;;;;;;28.77;11.63;;;8.80;98.20;;;;;;5093352;28;20453;-72
2023/12/18 08:28:17;;;;;;;27.42;11.40;;;8.80;98.20;;;;;;5092241;28;20425;-72
2023/12/18 08:30:44;;;;;;;24.90;11.30;;;8.80;98.20;;;;;;5085760;28;20422;-72
2023/12/18 08:33:10;;;;;;;25.42;12.13;;;8.80;98.20;;;;;;5095675;28;20428;-72
2023/12/18 08:35:35;;;;;;;26.75;11.80;;;8.80;98.20;;;;;;5091691;28;20426;-72
2023/12/18 08:38:01;;;;;;;27.57;11.83;;;8.80;98.20;;;;;;5087906;28;20433;-72
2023/12/18 08:40:29;;;;;;;38.97;12.80;;;8.80;98.30;;;;;;5091997;28;20422;-72
2023/12/18 08:42:54;;;;;;;23.55;11.63;;;8.80;98.30;;;;;;5092515;28;20434;-72
2023/12/18 08:45:20;;;;;;;24.50;11.17;;;8.80;98.30;;;;;;5092808;28;20425;-72
2023/12/18 08:47:46;;;;;;;25.65;12.18;;;8.80;98.30;;;;;;5094765;28;21156;-72
2023/12/18 08:50:11;;;;;;;28.03;11.90;;;8.80;98.30;;;;;;5093345;28;20424;-72
2023/12/18 08:52:37;;;;;;;25.58;12.20;;;8.80;98.30;;;;;;5091945;28;20822;-72
2023/12/18 08:55:03;;;;;;;26.80;11.70;;;8.90;98.30;;;;;;5092053;28;20456;-72
2023/12/18 08:57:29;;;;;;;27.75;11.32;;;8.80;98.30;;;;;;5084887;28;20426;-72
2023/12/18 08:59:55;;;;;;;28.03;12.17;;;8.90;98.30;;;;;;5091489;28;20421;-72
2023/12/18 09:02:21;;;;;;;24.95;11.55;;;8.90;98.30;;;;;;5089321;28;20436;-72
2023/12/18 09:04:46;;;;;;;27.42;12.25;;;8.90;98.30;;;;;;5094847;28;20428;-72
2023/12/18 09:07:12;;;;;;;30.67;12.60;;;8.90;98.30;;;;;;5088998;28;20443;-72
2023/12/18 09:09:39;;;;;;;25.35;11.18;;;8.90;98.30;;;;;;5098012;28;20428;-72
2023/12/18 09:12:08;;;;;;;27.05;12.27;;;8.90;98.30;;;;;;5087012;28;20457;-72
2023/12/18 09:14:35;;;;;;;32.85;12.68;;;8.90;98.30;;;;;;5089689;28;20420;-72
2023/12/18 09:17:01;;;;;;;24.85;11.40;;;8.90;98.30;;;;;;5092266;28;20410;-72
2023/12/18 09:19:26;;;;;;;28.40;11.75;;;8.90;98.40;;;;;;5098141;28;20457;-72
2023/12/18 09:21:52;;;;;;;24.83;13.07;;;8.90;98.40;;;;;;5085863;28;20924;-72
2023/12/18 09:24:18;;;;;;;27.53;12.57;;;8.90;98.30;;;;;;5092650;28;20491;-72
2023/12/18 09:26:43;;;;;;;26.42;12.93;;;8.90;98.30;;;;;;5094943;28;20512;-72
2023/12/18 09:29:09;;;;;;;30.73;13.40;;;8.90;98.40;;;;;;5096172;28;20475;-72
2023/12/18 09:31:35;;;;;;;29.60;13.47;;;8.90;98.30;;;;;;5088012;28;20462;-72
2023/12/18 09:34:01;;;;;;;28.17;14.18;;;8.90;98.30;;;;;;5084994;28;20422;-72
2023/12/18 09:36:26;;;;;;;32.03;13.75;;;8.80;98.30;;;;;;5097376;28;20513;-72
2023/12/18 09:38:52;;;;;;;30.73;13.70;;;8.90;98.40;;;;;;5095002;28;20404;-72
2023/12/18 09:41:25;;;;;;;32.92;14.80;;;8.90;98.40;;;;;;5093072;28;20457;-72
2023/12/18 09:43:52;;;;;;;30.77;13.87;;;8.90;98.50;;;;;;5086346;28;20433;-72
2023/12/18 09:46:22;;;;;;;28.42;14.00;;;8.90;98.40;;;;;;5085550;28;20479;-72
2023/12/18 09:48:50;;;;;;;31.92;14.00;;;8.90;98.40;;;;;;5085758;28;20947;-72
2023/12/18 09:51:20;;;;;;;29.88;13.52;;;8.90;98.30;;;;;;5085712;28;20454;-72
2023/12/18 09:53:47;;;;;;;23.00;13.13;;;8.90;98.40;;;;;;5088861;28;20414;-72
2023/12/18 09:56:13;;;;;;;26.95;13.77;;;8.90;98.30;;;;;;5095271;28;20489;-72
2023/12/18 09:58:40;;;;;;;27.38;13.02;;;8.90;98.30;;;;;;5097133;28;20505;-72
2023/12/18 10:01:07;;;;;;;27.70;14.23;;;8.90;98.30;;;;;;5094429;28;20887;-72
2023/12/18 10:03:33;;;;;;;27.95;14.20;;;8.90;98.30;;;;;;5077166;28;20524;-72
2023/12/18 10:05:59;;;;;;;27.43;14.37;;;8.90;98.30;;;;;;5093676;28;20512;-72
2023/12/18 10:08:24;;;;;;;29.90;14.57;;;8.90;98.30;;;;;;5089650;28;20927;-73
2023/12/18 10:10:50;;;;;;;28.88;16.02;;;8.90;98.30;;;;;;5091558;28;20413;-73
2023/12/18 10:13:16;;;;;;;28.87;14.73;;;8.90;98.30;;;;;;5086370;28;20441;-73
2023/12/18 10:15:42;;;;;;;27.63;15.17;;;9.00;98.40;;;;;;5076406;28;20436;-73
2023/12/18 10:18:09;;;;;;;27.13;14.88;;;8.90;98.30;;;;;;5090546;28;20795;-73
2023/12/18 10:20:35;;;;;;;26.67;15.30;;;8.90;98.30;;;;;;5089467;28;20433;-73
2023/12/18 10:23:02;;;;;;;28.33;15.27;;;9.00;98.30;;;;;;5085566;28;20424;-73
2023/12/18 10:25:27;;;;;;;31.55;15.30;;;9.00;98.20;;;;;;5106180;28;20392;-73
2023/12/18 10:27:56;;;;;;;31.67;15.70;;;9.00;98.20;;;;;;5098495;27;20414;-72
2023/12/18 10:30:25;;;;;;;32.65;16.88;;;9.00;98.10;;;;;;5095025;28;20412;-73
2023/12/18 10:32:54;;;;;;;26.88;15.98;;;9.00;98.10;;;;;;5091538;28;20429;-73
2023/12/18 10:35:22;;;;;;;30.85;16.70;;;9.00;98.10;;;;;;5096262;28;20432;-73
2023/12/18 10:37:54;;;;;;;29.90;16.77;;;9.00;98.00;;;;;;5098419;28;20482;-73
2023/12/18 10:40:23;;;;;;;30.30;16.80;;;9.00;97.90;;;;;;5085455;28;21547;-73
2023/12/18 10:43:12;;;;;;;31.25;17.10;;;9.00;97.80;;;;;;5096750;28;20398;-73
2023/12/18 10:45:39;;;;;;;33.72;17.45;;;9.00;97.80;;;;;;5080278;28;20434;-72
2023/12/18 10:48:07;;;;;;;32.53;19.00;;;8.90;97.80;;;;;;5092340;28;20403;-73
2023/12/18 10:50:36;;;;;;;33.60;18.05;;;8.90;97.80;;;;;;5088555;28;20425;-73
2023/12/18 10:53:04;;;;;;;31.53;17.93;;;8.90;97.80;;;;;;5091883;28;20488;-73
2023/12/18 10:55:31;;;;;;;38.97;18.75;;;8.90;97.80;;;;;;5096865;28;20753;-72
2023/12/18 10:57:59;;;;;;;32.08;18.75;;;8.90;97.80;;;;;;5095880;28;20476;-72
2023/12/18 11:00:26;;;;;;;31.43;18.47;;;8.90;97.90;;;;;;5093386;28;20460;-73
2023/12/18 11:02:53;;;;;;;36.22;19.65;;;8.90;97.90;;;;;;5082094;28;20409;-73
2023/12/18 11:05:21;;;;;;;32.60;18.92;;;9.00;98.00;;;;;;5096795;28;20418;-72
2023/12/18 11:07:47;;;;;;;36.88;19.60;;;8.90;97.90;;;;;;5099877;28;20398;-72
2023/12/18 11:10:13;;;;;;;36.65;19.25;;;8.90;97.90;;;;;;5102039;27;20850;-72
2023/12/18 11:12:41;;;;;;;34.20;17.98;;;8.90;97.90;;;;;;5101987;28;20435;-72
2023/12/18 11:15:29;;;;;;;36.88;19.42;;;9.00;97.90;;;;;;5089176;27;20487;-73
2023/12/18 11:18:03;;;;;;;34.10;19.50;;;9.00;97.80;;;;;;5088894;28;20419;-73
2023/12/18 11:20:35;;;;;;;34.40;18.95;;;9.00;97.80;;;;;;5090152;28;20434;-71
2023/12/18 11:23:01;;;;;;;38.33;19.50;;;9.00;97.80;;;;;;5087114;28;20916;-72
2023/12/18 11:25:40;;;;;;;37.70;18.77;;;9.00;97.80;;;;;;5100017;28;20424;-72
2023/12/18 11:28:06;;;;;;;36.00;18.80;;;9.00;97.80;;;;;;5100133;28;20465;-72
2023/12/18 11:30:34;;;;;;;35.85;19.35;;;9.00;97.80;;;;;;5086094;28;20435;-72
2023/12/18 11:33:08;;;;;;;32.60;18.15;;;9.00;97.80;;;;;;5099314;28;20456;-72
2023/12/18 11:35:35;;;;;;;35.47;18.90;;;9.00;97.80;;;;;;5103102;28;20434;-72
2023/12/18 11:38:05;;;;;;;30.15;18.15;;;9.00;97.80;;;;;;5099030;28;20415;-72
2023/12/18 11:40:31;;;;;;;37.13;19.00;;;9.10;97.80;;;;;;5093709;28;20810;-73
2023/12/18 11:43:00;;;;;;;36.83;18.87;;;9.10;97.70;;;;;;5100365;28;20401;-73
2023/12/18 11:45:26;;;;;;;30.42;17.35;;;9.10;97.70;;;;;;5101028;28;20495;-73
2023/12/18 11:47:56;;;;;;;33.87;18.83;;;9.10;97.70;;;;;;5099624;28;20749;-72
2023/12/18 11:50:26;;;;;;;33.42;18.55;;;9.10;97.60;;;;;;5101752;28;20457;-73
2023/12/18 11:52:56;;;;;;;34.30;18.13;;;9.10;97.60;;;;;;5100823;28;20929;-73
2023/12/18 11:55:45;;;;;;;37.35;18.85;;;9.10;97.60;;;;;;5100585;28;20481;-73
2023/12/18 11:58:10;;;;;;;33.25;19.02;;;9.10;97.60;;;;;;5105393;27;20408;-73
2023/12/18 12:00:38;;;;;;;36.60;18.03;;;9.10;97.50;;;;;;5097943;28;20410;-73
2023/12/18 12:03:04;;;;;;;30.63;16.92;;;9.10;97.50;;;;;;5103343;28;20408;-73
2023/12/18 12:05:31;;;;;;;31.95;17.13;;;9.20;97.50;;;;;;5089641;28;20459;-73
2023/12/18 12:07:58;;;;;;;30.00;16.70;;;9.20;97.50;;;;;;5102376;28;20404;-73
2023/12/18 12:10:24;;;;;;;33.10;17.55;;;9.20;97.40;;;;;;5099200;28;20767;-73
2023/12/18 12:12:57;;;;;;;33.08;17.50;;;9.20;97.30;;;;;;5103427;28;20429;-73
2023/12/18 12:15:27;;;;;;;33.88;17.13;;;9.20;97.30;;;;;;5096500;28;20616;-73
2023/12/18 12:18:04;;;;;;;29.42;17.40;;;9.20;97.40;;;;;;5100957;28;20753;-73
2023/12/18 12:20:30;;;;;;;30.57;16.93;;;9.20;97.30;;;;;;5101994;28;20788;-73
2023/12/18 12:22:56;;;;;;;33.13;17.63;;;9.20;97.20;;;;;;5086346;28;20401;-72
2023/12/18 12:25:21;;;;;;;32.03;16.97;;;9.20;97.10;;;;;;5092223;28;20438;-73
2023/12/18 12:27:47;;;;;;;33.13;16.85;;;9.20;97.10;;;;;;5089227;28;20414;-73
2023/12/18 12:30:13;;;;;;;39.13;17.37;;;9.20;97.00;;;;;;5088073;28;20451;-73
2023/12/18 12:32:39;;;;;;;29.92;16.90;;;9.20;97.00;;;;;;5075911;28;20434;-73
2023/12/18 12:35:07;;;;;;;33.45;16.27;;;9.30;97.00;;;;;;5085014;28;20416;-73
2023/12/18 12:37:33;;;;;;;30.70;16.15;;;9.20;96.90;;;;;;5062635;28;20460;-73
2023/12/18 12:40:05;;;;;;;27.35;16.20;;;9.30;96.90;;;;;;5078679;28;20403;-73